createdAt,value
2019-05-19T08:07:55.427Z,21.47
2019-05-19T08:17:56.778Z,22.87
2019-05-19T08:28:07.648Z,20.10
2019-05-19T08:37:59.378Z,19.53
2019-05-19T08:48:00.657Z,20.07
2019-05-19T08:58:02.005Z,20.33
2019-05-19T09:08:04.328Z,17.23
2019-05-19T09:18:06.395Z,18.58
2019-05-19T09:28:07.693Z,17.33
2019-05-19T09:38:09.022Z,15.27
2019-05-19T09:48:10.314Z,11.40
2019-05-19T09:58:15.790Z,12.15
2019-05-19T10:08:15.238Z,12.82
2019-05-19T10:18:16.600Z,12.95
2019-05-19T10:28:17.870Z,13.40
2019-05-19T10:38:20.056Z,14.45
2019-05-19T10:48:22.860Z,14.35
2019-05-19T10:58:24.197Z,13.53
2019-05-19T11:08:26.433Z,12.67
2019-05-19T11:18:28.078Z,12.80
2019-05-19T11:28:29.461Z,12.63
2019-05-19T11:38:30.812Z,12.93
2019-05-19T11:48:36.422Z,12.47
2019-05-19T11:58:37.783Z,12.07
2019-05-19T12:08:39.606Z,11.97
2019-05-19T12:28:51.752Z,9.93
2019-05-19T12:38:53.016Z,9.40
2019-05-19T12:48:54.319Z,10.67
2019-05-19T12:58:58.423Z,9.80
2019-05-19T13:08:59.731Z,11.10
2019-05-19T13:19:01.034Z,10.87
2019-05-19T13:29:07.103Z,11.93
2019-05-19T13:39:09.248Z,13.57
2019-05-19T13:49:10.655Z,6.03
2019-05-19T16:12:02.153Z,14.23
2019-05-19T16:22:04.230Z,14.80
2019-05-19T16:32:05.553Z,14.17
2019-05-19T16:42:06.861Z,14.97
2019-05-19T16:52:08.158Z,15.30
2019-05-19T17:02:10.223Z,16.07
2019-05-19T17:12:11.624Z,19.93
2019-05-19T17:22:12.922Z,17.57
2019-05-19T17:32:14.271Z,17.33
2019-05-19T17:42:20.489Z,25.55
2019-05-19T17:52:22.679Z,19.77
2019-05-19T18:02:24.177Z,20.37
2019-05-19T18:12:25.603Z,24.27
2019-05-19T18:22:27.189Z,21.33
